createdAt,value
2018-12-27T00:00:26.109Z,8.37
2018-12-27T00:02:55.857Z,7.73
2018-12-27T00:05:25.550Z,8.57
2018-12-27T00:07:55.283Z,8.13
2018-12-27T00:10:24.960Z,8.40
2018-12-27T00:12:54.708Z,9.20
2018-12-27T00:15:24.380Z,8.63
2018-12-27T00:17:54.121Z,8.40
2018-12-27T00:20:23.866Z,8.73
2018-12-27T00:22:53.591Z,7.87
2018-12-27T00:25:23.370Z,8.70
2018-12-27T00:27:53.263Z,9.20
2018-12-27T00:30:23.745Z,8.77
2018-12-27T00:32:53.819Z,8.47
2018-12-27T00:35:23.887Z,7.27
2018-12-27T00:37:54.103Z,7.87
2018-12-27T00:40:24.208Z,8.00
2018-12-27T00:42:54.289Z,7.80
2018-12-27T00:45:24.325Z,8.00
2018-12-27T00:47:54.407Z,7.60
2018-12-27T00:50:24.472Z,6.97
2018-12-27T00:52:54.544Z,6.87
2018-12-27T00:55:24.640Z,7.17
2018-12-27T00:57:54.712Z,7.60
2018-12-27T01:00:24.760Z,7.43
2018-12-27T01:02:54.834Z,6.67
2018-12-27T01:05:24.850Z,7.27
2018-12-27T01:07:54.966Z,7.57
2018-12-27T01:10:24.965Z,6.80
2018-12-27T01:12:55.026Z,7.87
2018-12-27T01:15:25.066Z,6.87
2018-12-27T01:17:55.031Z,7.03
2018-12-27T01:20:25.096Z,6.90
2018-12-27T01:22:55.093Z,6.57
2018-12-27T01:25:25.223Z,7.77
2018-12-27T01:27:55.246Z,7.70
2018-12-27T01:30:25.314Z,7.47
2018-12-27T01:32:55.338Z,7.33
2018-12-27T01:35:25.411Z,7.70
2018-12-27T01:37:55.525Z,6.80
2018-12-27T01:40:25.580Z,7.23
2018-12-27T01:42:55.586Z,7.70
2018-12-27T01:45:25.727Z,7.67
2018-12-27T01:47:55.784Z,7.37
2018-12-27T01:50:25.886Z,7.53
2018-12-27T01:52:55.896Z,6.53
2018-12-27T01:55:25.962Z,7.90
2018-12-27T01:57:55.974Z,7.70
2018-12-27T02:00:26.035Z,7.07
2018-12-27T02:02:56.094Z,6.93
2018-12-27T02:05:26.168Z,7.47
2018-12-27T02:07:56.234Z,7.43
2018-12-27T02:10:26.307Z,6.97
2018-12-27T02:12:56.291Z,6.83
2018-12-27T02:15:26.329Z,7.10
2018-12-27T02:17:56.349Z,7.63
2018-12-27T02:20:26.428Z,7.60
2018-12-27T02:22:56.446Z,7.07
2018-12-27T02:25:26.590Z,7.17
2018-12-27T02:27:56.618Z,7.30
2018-12-27T02:30:26.685Z,7.53
2018-12-27T02:32:56.758Z,7.30
2018-12-27T02:35:26.847Z,6.97
2018-12-27T02:37:56.858Z,7.07
2018-12-27T02:40:26.919Z,7.43
2018-12-27T02:42:56.995Z,6.53
2018-12-27T02:45:27.056Z,7.07
2018-12-27T02:47:57.079Z,6.40
2018-12-27T02:50:27.110Z,7.03
2018-12-27T02:52:57.168Z,7.03
2018-12-27T02:55:27.259Z,6.97
2018-12-27T02:57:57.268Z,8.67
2018-12-27T03:00:27.320Z,7.60
2018-12-27T03:02:57.336Z,6.93
2018-12-27T03:05:27.391Z,7.87
2018-12-27T03:07:57.451Z,7.43
2018-12-27T03:10:27.479Z,7.83
2018-12-27T03:12:57.508Z,6.60
2018-12-27T03:15:29.006Z,7.40
2018-12-27T03:17:59.030Z,7.63
2018-12-27T03:20:29.138Z,7.63
2018-12-27T03:22:59.176Z,7.53
2018-12-27T03:25:29.235Z,7.00
2018-12-27T03:27:59.285Z,6.87
2018-12-27T03:30:29.354Z,7.70
2018-12-27T03:32:59.380Z,7.17
2018-12-27T03:35:29.747Z,6.87
2018-12-27T03:37:59.777Z,7.20
2018-12-27T03:40:29.819Z,6.80
2018-12-27T03:42:59.880Z,6.90
2018-12-27T03:45:30.012Z,6.67
2018-12-27T03:48:00.055Z,6.90
2018-12-27T03:50:30.749Z,7.37
2018-12-27T03:53:00.789Z,8.20
2018-12-27T03:55:30.870Z,7.27
2018-12-27T03:58:01.597Z,7.90
2018-12-27T04:00:31.690Z,6.87
2018-12-27T04:03:01.723Z,7.93
2018-12-27T04:05:31.889Z,6.87
2018-12-27T04:08:01.910Z,6.70
2018-12-27T04:10:32.230Z,6.90
2018-12-27T04:13:02.590Z,7.70
2018-12-27T04:15:32.447Z,7.40
2018-12-27T04:18:02.148Z,6.50
2018-12-27T04:20:31.865Z,6.70
2018-12-27T04:23:01.554Z,6.37
2018-12-27T04:25:31.399Z,6.93
2018-12-27T04:28:01.076Z,7.70
2018-12-27T04:30:30.811Z,7.53
2018-12-27T04:33:00.513Z,6.63
2018-12-27T04:35:31.165Z,6.87
2018-12-27T04:38:00.832Z,6.87
2018-12-27T04:40:30.534Z,6.43
2018-12-27T04:43:00.194Z,7.30
2018-12-27T04:45:29.909Z,7.43
2018-12-27T04:47:59.561Z,7.33
2018-12-27T04:50:29.254Z,6.83
2018-12-27T04:52:58.981Z,7.10
2018-12-27T04:55:28.679Z,6.97
2018-12-27T04:57:58.375Z,7.40
2018-12-27T05:00:28.104Z,7.47
2018-12-27T05:02:57.861Z,6.60
2018-12-27T05:05:27.562Z,6.83
2018-12-27T05:07:57.283Z,6.70
2018-12-27T05:10:26.984Z,6.70
2018-12-27T05:12:56.702Z,6.83
2018-12-27T05:15:26.372Z,7.07
2018-12-27T05:17:56.151Z,6.77
2018-12-27T05:20:25.830Z,6.87
2018-12-27T05:22:55.545Z,5.83
2018-12-27T05:25:25.338Z,7.17
2018-12-27T05:27:55.040Z,7.13
2018-12-27T05:30:24.725Z,6.63
2018-12-27T05:32:54.448Z,7.13
2018-12-27T05:35:24.126Z,6.80
2018-12-27T05:37:53.825Z,6.20
2018-12-27T05:40:23.511Z,6.33
2018-12-27T05:42:54.135Z,6.17
2018-12-27T05:45:23.904Z,6.57
2018-12-27T05:47:53.779Z,6.40
2018-12-27T05:50:23.492Z,6.27
2018-12-27T05:52:53.230Z,6.30
2018-12-27T05:55:22.914Z,5.87
2018-12-27T05:57:52.679Z,6.23
2018-12-27T06:00:22.431Z,5.80
2018-12-27T06:02:52.261Z,6.63
2018-12-27T06:05:21.961Z,6.20
2018-12-27T06:07:51.682Z,6.47
2018-12-27T06:10:21.376Z,6.33
2018-12-27T06:12:51.089Z,6.10
2018-12-27T06:15:20.777Z,6.80
2018-12-27T06:17:50.493Z,6.73
2018-12-27T06:20:20.184Z,7.13
2018-12-27T06:22:49.891Z,6.80
2018-12-27T06:25:19.568Z,6.90
2018-12-27T06:27:49.274Z,6.77
2018-12-27T06:30:18.974Z,6.93
2018-12-27T06:32:48.723Z,7.03
2018-12-27T06:35:18.423Z,6.80
2018-12-27T06:37:48.168Z,6.97
2018-12-27T06:40:17.864Z,7.60
2018-12-27T06:42:47.613Z,7.03
2018-12-27T06:45:17.383Z,7.60
2018-12-27T06:47:47.150Z,7.60
2018-12-27T06:50:16.819Z,7.90
2018-12-27T06:52:46.533Z,7.87
2018-12-27T06:55:16.228Z,7.43
2018-12-27T06:57:45.969Z,6.60
2018-12-27T07:00:15.692Z,8.00
2018-12-27T07:02:45.391Z,7.53
2018-12-27T07:05:15.588Z,7.43
2018-12-27T07:07:45.485Z,7.63
2018-12-27T07:10:15.161Z,8.47
2018-12-27T07:12:44.887Z,7.30
2018-12-27T07:15:14.561Z,6.97
2018-12-27T07:17:44.291Z,8.73
2018-12-27T07:20:13.984Z,8.23
2018-12-27T07:22:43.771Z,9.27
2018-12-27T07:25:13.471Z,8.83
2018-12-27T07:27:43.760Z,8.70
2018-12-27T07:30:13.552Z,7.93
2018-12-27T07:32:43.265Z,7.97
2018-12-27T07:35:12.943Z,7.70
2018-12-27T07:37:42.691Z,8.83
2018-12-27T07:40:12.375Z,7.83
2018-12-27T07:42:42.131Z,9.03
2018-12-27T07:45:11.800Z,7.83
2018-12-27T07:47:41.594Z,8.23
2018-12-27T07:50:11.305Z,7.57
2018-12-27T07:52:41.182Z,8.67
2018-12-27T07:55:10.946Z,8.07
2018-12-27T07:57:40.704Z,8.83
2018-12-27T08:00:10.826Z,8.13
2018-12-27T08:02:40.611Z,9.43
2018-12-27T08:05:10.358Z,7.73
2018-12-27T08:07:40.119Z,8.73
2018-12-27T08:10:09.856Z,8.63
2018-12-27T08:12:39.512Z,7.97
2018-12-27T08:15:09.270Z,8.43
2018-12-27T08:17:39.006Z,7.70
2018-12-27T08:20:08.776Z,8.43
2018-12-27T08:22:38.491Z,9.07
2018-12-27T08:25:08.207Z,7.63
2018-12-27T08:27:37.889Z,8.00
2018-12-27T08:30:08.594Z,8.90
2018-12-27T08:32:38.284Z,7.47
2018-12-27T08:35:11.651Z,8.97
2018-12-27T08:37:39.538Z,8.77
2018-12-27T08:40:09.256Z,8.63
2018-12-27T08:42:38.969Z,9.20
2018-12-27T08:45:08.706Z,8.93
2018-12-27T08:47:38.402Z,8.97
2018-12-27T08:50:08.419Z,7.80
2018-12-27T08:52:38.085Z,9.43
2018-12-27T08:55:08.146Z,7.23
2018-12-27T08:57:37.837Z,8.50
2018-12-27T09:00:07.867Z,8.20
2018-12-27T09:02:37.524Z,8.67
2018-12-27T09:05:07.827Z,8.37
2018-12-27T09:07:37.517Z,8.87
2018-12-27T09:10:07.365Z,9.47
2018-12-27T09:12:37.059Z,8.80
2018-12-27T09:15:06.954Z,7.97
2018-12-27T09:17:36.727Z,9.63
2018-12-27T09:20:07.138Z,8.80
2018-12-27T09:22:36.800Z,8.57
2018-12-27T09:25:07.313Z,8.97
2018-12-27T09:27:37.000Z,8.90
2018-12-27T09:30:07.327Z,8.87
2018-12-27T09:32:36.990Z,9.33
2018-12-27T09:35:06.811Z,8.83
2018-12-27T09:37:36.508Z,8.57
2018-12-27T09:40:07.163Z,8.13
2018-12-27T09:42:36.832Z,8.60
2018-12-27T09:45:07.025Z,8.03
2018-12-27T09:47:36.784Z,8.23
2018-12-27T09:50:06.573Z,8.37
2018-12-27T09:52:36.264Z,8.40
2018-12-27T09:55:06.873Z,7.73
2018-12-27T09:57:36.561Z,9.23
2018-12-27T10:00:06.633Z,8.83
2018-12-27T10:02:36.364Z,8.50
2018-12-27T10:05:06.384Z,8.37
2018-12-27T10:07:36.078Z,7.73
2018-12-27T10:10:06.901Z,8.13
2018-12-27T10:12:36.590Z,8.30
2018-12-27T10:15:07.028Z,7.43
2018-12-27T10:17:36.736Z,8.30
2018-12-27T10:20:06.681Z,7.37
2018-12-27T10:22:36.352Z,8.27
2018-12-27T10:25:07.103Z,8.77
2018-12-27T10:27:36.778Z,8.37
2018-12-27T10:30:06.772Z,7.93
2018-12-27T10:32:36.466Z,8.10
2018-12-27T10:35:07.210Z,8.43
2018-12-27T10:37:36.890Z,8.27
2018-12-27T10:40:09.830Z,8.30
2018-12-27T10:42:39.505Z,8.63
2018-12-27T10:45:09.652Z,8.43
2018-12-27T10:47:39.336Z,7.63
2018-12-27T10:50:09.838Z,8.47
2018-12-27T10:52:39.542Z,8.07
2018-12-27T10:55:09.239Z,8.23
2018-12-27T10:57:38.972Z,7.90
2018-12-27T11:00:11.250Z,7.93
2018-12-27T11:02:40.898Z,7.77
2018-12-27T11:05:10.789Z,8.67
2018-12-27T11:07:40.511Z,7.40
2018-12-27T11:10:11.461Z,7.57
2018-12-27T11:12:41.226Z,6.97
2018-12-27T11:15:10.952Z,7.80
2018-12-27T11:17:40.641Z,9.27
2018-12-27T11:20:10.406Z,7.93
2018-12-27T11:22:40.090Z,8.00
2018-12-27T11:25:09.921Z,8.10
2018-12-27T11:27:39.572Z,8.40
2018-12-27T11:30:09.285Z,7.63
2018-12-27T11:32:39.010Z,10.60
2018-12-27T11:35:08.756Z,8.53
2018-12-27T11:37:38.448Z,8.53
2018-12-27T11:40:08.279Z,7.67
2018-12-27T11:42:38.000Z,8.07
2018-12-27T11:45:07.834Z,8.07
2018-12-27T11:47:37.551Z,7.20
2018-12-27T11:50:07.327Z,8.10
2018-12-27T11:52:37.061Z,7.17
2018-12-27T11:55:07.070Z,7.30
2018-12-27T11:57:36.779Z,8.20
2018-12-27T12:00:07.949Z,7.77
2018-12-27T12:02:37.655Z,6.70
2018-12-27T12:05:07.665Z,6.40
2018-12-27T12:07:37.385Z,8.67
2018-12-27T12:10:07.856Z,7.87
2018-12-27T12:12:37.571Z,7.20
2018-12-27T12:15:07.739Z,8.07
2018-12-27T12:17:37.447Z,7.13
2018-12-27T12:20:07.200Z,7.67
2018-12-27T12:22:36.889Z,7.93
2018-12-27T12:25:06.642Z,7.63
2018-12-27T12:27:36.304Z,8.13
2018-12-27T12:30:06.739Z,7.33
2018-12-27T12:32:36.396Z,7.33
2018-12-27T12:35:06.760Z,7.90
2018-12-27T12:37:36.581Z,8.40
2018-12-27T12:40:06.874Z,7.57
2018-12-27T12:42:36.527Z,7.53
2018-12-27T12:45:07.580Z,6.93
2018-12-27T12:47:37.249Z,7.17
2018-12-27T12:50:08.245Z,7.07
2018-12-27T12:52:39.263Z,6.40
2018-12-27T12:55:09.114Z,7.27
2018-12-27T12:57:38.816Z,6.50
2018-12-27T13:00:10.864Z,6.37
2018-12-27T13:02:40.574Z,7.70
2018-12-27T13:05:10.374Z,7.23
2018-12-27T13:07:40.131Z,6.77
2018-12-27T13:10:09.812Z,6.97
2018-12-27T13:12:39.637Z,6.73
2018-12-27T13:15:09.293Z,6.60
2018-12-27T13:17:38.958Z,6.57
2018-12-27T13:20:08.745Z,7.03
2018-12-27T13:22:38.401Z,6.33
2018-12-27T13:25:08.111Z,6.73
2018-12-27T13:27:37.786Z,7.50
2018-12-27T13:30:07.857Z,6.70
2018-12-27T13:32:37.522Z,6.23
2018-12-27T13:35:07.356Z,6.50
2018-12-27T13:37:37.004Z,6.80
2018-12-27T13:40:07.377Z,5.43
2018-12-27T13:42:37.039Z,6.00
2018-12-27T13:45:07.294Z,5.70
2018-12-27T13:47:36.969Z,5.67
2018-12-27T13:50:06.970Z,5.70
2018-12-27T13:52:36.651Z,6.33
2018-12-27T13:55:07.033Z,6.17
2018-12-27T13:57:36.694Z,6.17
2018-12-27T14:00:07.182Z,6.30
2018-12-27T14:02:36.856Z,6.40
2018-12-27T14:05:07.049Z,5.67
2018-12-27T14:07:36.737Z,5.57
2018-12-27T14:10:07.832Z,5.53
2018-12-27T14:12:37.504Z,6.03
2018-12-27T14:15:07.457Z,5.70
2018-12-27T14:17:37.125Z,5.17
2018-12-27T14:20:07.335Z,5.23
2018-12-27T14:22:37.009Z,5.93
2018-12-27T14:25:06.839Z,5.23
2018-12-27T14:27:36.508Z,5.93
2018-12-27T14:30:07.092Z,5.67
2018-12-27T14:32:36.771Z,6.30
2018-12-27T14:35:06.985Z,6.07
2018-12-27T14:37:36.643Z,5.87
2018-12-27T14:40:08.332Z,5.63
2018-12-27T14:42:37.991Z,6.00
2018-12-27T14:45:07.744Z,5.73
2018-12-27T14:47:37.495Z,5.70
2018-12-27T14:50:07.382Z,5.97
2018-12-27T14:52:37.039Z,6.47
2018-12-27T14:55:06.813Z,6.33
2018-12-27T14:57:36.497Z,6.00
2018-12-27T15:00:08.018Z,7.00
2018-12-27T15:02:37.631Z,6.50
2018-12-27T15:05:07.430Z,6.67
2018-12-27T15:07:37.084Z,7.50
2018-12-27T15:10:08.570Z,7.03
2018-12-27T15:12:38.317Z,9.10
2018-12-27T15:15:08.105Z,10.77
2018-12-27T15:17:37.830Z,14.00
2018-12-27T15:20:07.764Z,14.37
2018-12-27T15:22:37.455Z,18.20
2018-12-27T15:25:07.357Z,15.20
2018-12-27T15:27:37.087Z,14.73
2018-12-27T15:30:06.864Z,14.50
2018-12-27T15:32:36.523Z,12.53
2018-12-27T15:35:06.411Z,9.77
2018-12-27T15:37:36.117Z,8.87
2018-12-27T15:40:05.992Z,8.23
2018-12-27T15:42:35.698Z,10.93
2018-12-27T15:45:05.832Z,9.33
2018-12-27T15:47:35.545Z,8.97
2018-12-27T15:50:05.557Z,8.80
2018-12-27T15:52:35.245Z,8.83
2018-12-27T15:55:05.000Z,9.17
2018-12-27T15:57:34.695Z,8.93
2018-12-27T16:00:04.632Z,8.70
2018-12-27T16:02:34.307Z,9.17
2018-12-27T16:05:04.076Z,7.30
2018-12-27T16:07:33.759Z,8.37
2018-12-27T16:10:03.498Z,7.87
2018-12-27T16:12:33.172Z,6.50
2018-12-27T16:15:02.882Z,7.90
2018-12-27T16:17:32.541Z,7.13
2018-12-27T16:20:02.275Z,7.30
2018-12-27T16:22:32.064Z,8.47
2018-12-27T16:25:01.824Z,8.03
2018-12-27T16:27:31.514Z,8.57
2018-12-27T16:30:01.243Z,8.43
2018-12-27T16:32:30.988Z,8.57
2018-12-27T16:35:00.712Z,8.90
2018-12-27T16:37:30.427Z,10.97
2018-12-27T16:40:00.220Z,10.53
2018-12-27T16:42:29.954Z,9.73
2018-12-27T16:44:59.679Z,10.13
2018-12-27T16:47:29.352Z,8.83
2018-12-27T16:49:59.174Z,8.97
2018-12-27T16:52:28.824Z,9.50
2018-12-27T16:54:58.538Z,7.93
2018-12-27T16:57:28.315Z,8.73
2018-12-27T16:59:58.033Z,8.23
2018-12-27T17:02:27.727Z,8.80
2018-12-27T17:04:57.488Z,8.60
2018-12-27T17:07:27.219Z,8.27
2018-12-27T17:09:56.977Z,8.43
2018-12-27T17:12:26.632Z,8.90
2018-12-27T17:14:56.401Z,7.10
2018-12-27T17:17:26.075Z,7.80
2018-12-27T17:19:57.488Z,7.40
2018-12-27T17:22:27.184Z,7.77
2018-12-27T17:24:56.909Z,8.47
2018-12-27T17:27:32.914Z,8.60
2018-12-27T17:30:03.269Z,7.93
2018-12-27T17:32:33.343Z,9.43
2018-12-27T17:35:03.087Z,8.33
2018-12-27T17:37:32.857Z,7.87
2018-12-27T17:40:02.581Z,8.87
2018-12-27T17:42:32.282Z,10.00
2018-12-27T17:45:02.022Z,8.13
2018-12-27T17:47:31.935Z,9.27
2018-12-27T17:50:01.939Z,7.43
2018-12-27T17:52:31.626Z,7.70
2018-12-27T17:55:01.364Z,7.27
2018-12-27T17:57:31.175Z,7.90
2018-12-27T18:00:00.851Z,9.20
2018-12-27T18:02:30.751Z,10.00
2018-12-27T18:05:00.563Z,9.00
2018-12-27T18:07:30.919Z,10.27
2018-12-27T18:10:01.116Z,11.97
2018-12-27T18:12:30.995Z,11.60
2018-12-27T18:15:02.743Z,11.67
2018-12-27T18:17:32.690Z,12.17
2018-12-27T18:20:02.910Z,10.47
2018-12-27T18:22:32.655Z,11.23
2018-12-27T18:25:02.398Z,11.07
2018-12-27T18:27:32.105Z,10.60
2018-12-27T18:30:01.873Z,9.47
2018-12-27T18:32:31.676Z,10.40
2018-12-27T18:35:01.439Z,9.43
2018-12-27T18:37:37.456Z,10.40
2018-12-27T18:40:02.489Z,12.17
2018-12-27T18:42:32.190Z,11.87
2018-12-27T18:45:01.910Z,11.47
2018-12-27T18:47:31.631Z,10.60
2018-12-27T18:50:01.391Z,10.50
2018-12-27T18:52:31.097Z,11.20
2018-12-27T18:55:00.828Z,9.70
2018-12-27T18:57:30.539Z,9.57
2018-12-27T19:00:00.570Z,10.23
2018-12-27T19:02:34.001Z,9.73
2018-12-27T19:05:03.885Z,8.70
2018-12-27T19:07:33.641Z,9.97
2018-12-27T19:10:03.539Z,10.70
2018-12-27T19:13:10.774Z,9.37
2018-12-27T19:15:49.919Z,8.17
2018-12-27T19:18:31.512Z,8.90
2018-12-27T19:21:12.579Z,9.13
2018-12-27T19:23:42.346Z,7.80
2018-12-27T19:26:13.100Z,8.83
2018-12-27T19:28:43.091Z,9.20
2018-12-27T19:31:13.100Z,8.07
2018-12-27T19:33:46.083Z,7.93
2018-12-27T19:36:15.985Z,7.20
2018-12-27T19:38:45.979Z,7.57
2018-12-27T19:41:15.943Z,7.57
2018-12-27T19:43:45.827Z,6.87
2018-12-27T19:46:15.829Z,7.23
2018-12-27T19:48:45.614Z,7.67
2018-12-27T19:51:15.449Z,6.70
2018-12-27T19:53:45.135Z,8.17
2018-12-27T19:56:15.557Z,7.87
2018-12-27T19:58:45.421Z,9.23
2018-12-27T20:01:15.855Z,8.83
2018-12-27T20:03:45.746Z,9.50
2018-12-27T20:06:15.796Z,10.80
2018-12-27T20:08:45.636Z,9.47
2018-12-27T20:11:15.508Z,8.43
2018-12-27T20:13:45.327Z,8.37
2018-12-27T20:16:15.278Z,8.70
2018-12-27T20:18:45.001Z,8.93
2018-12-27T20:21:15.415Z,9.03
2018-12-27T20:23:45.098Z,8.43
2018-12-27T20:26:15.054Z,8.43
2018-12-27T20:28:44.804Z,8.07
2018-12-27T20:31:14.564Z,7.70
2018-12-27T20:33:44.289Z,7.87
2018-12-27T20:36:14.120Z,9.73
2018-12-27T20:38:44.007Z,8.47
2018-12-27T20:41:13.843Z,8.27
2018-12-27T20:43:44.002Z,7.80
2018-12-27T20:46:13.691Z,8.73
2018-12-27T20:48:43.468Z,7.37
2018-12-27T20:51:13.277Z,7.97
2018-12-27T20:53:43.003Z,7.67
2018-12-27T20:56:12.720Z,7.53
2018-12-27T20:58:42.480Z,7.47
2018-12-27T21:01:12.394Z,8.00
2018-12-27T21:03:42.428Z,8.27
2018-12-27T21:06:12.792Z,7.00
2018-12-27T21:08:42.734Z,9.10
2018-12-27T21:11:12.726Z,8.03
2018-12-27T21:13:42.793Z,8.43
2018-12-27T21:16:12.709Z,8.50
2018-12-27T21:18:43.102Z,8.53
2018-12-27T21:21:13.024Z,8.27
2018-12-27T21:23:43.968Z,8.10
2018-12-27T21:26:13.607Z,8.47
2018-12-27T21:28:43.346Z,7.93
2018-12-27T21:31:13.082Z,8.27
2018-12-27T21:33:42.787Z,8.73
2018-12-27T21:36:12.512Z,7.97
2018-12-27T21:38:42.258Z,9.27
2018-12-27T21:41:12.007Z,8.57
2018-12-27T21:43:41.754Z,9.20
2018-12-27T21:46:11.422Z,8.73
2018-12-27T21:48:41.191Z,7.40
2018-12-27T21:51:10.890Z,9.47
2018-12-27T21:53:40.607Z,8.37
2018-12-27T21:56:10.338Z,8.13
2018-12-27T21:58:40.086Z,7.90
2018-12-27T22:01:09.775Z,8.00
2018-12-27T22:03:39.533Z,8.33
2018-12-27T22:06:09.199Z,7.93
2018-12-27T22:08:38.940Z,6.80
2018-12-27T22:11:08.615Z,8.20
2018-12-27T22:13:38.544Z,7.87
2018-12-27T22:16:08.239Z,8.27
2018-12-27T22:18:37.994Z,7.37
2018-12-27T22:21:07.690Z,7.83
2018-12-27T22:23:37.459Z,7.90
2018-12-27T22:26:07.128Z,8.07
2018-12-27T22:28:36.856Z,7.57
2018-12-27T22:31:06.546Z,7.73
2018-12-27T22:33:36.280Z,6.77
2018-12-27T22:36:05.980Z,6.93
2018-12-27T22:38:35.900Z,7.23
2018-12-27T22:41:05.613Z,8.17
2018-12-27T22:43:35.338Z,7.97
2018-12-27T22:46:05.019Z,8.23
2018-12-27T22:48:34.777Z,8.20
2018-12-27T22:51:04.481Z,8.27
2018-12-27T22:53:34.213Z,7.67
2018-12-27T22:56:03.962Z,7.17
2018-12-27T22:58:33.678Z,8.50
2018-12-27T23:01:03.403Z,8.13
2018-12-27T23:03:33.159Z,7.83
2018-12-27T23:06:02.868Z,8.17
2018-12-27T23:08:32.611Z,8.37
2018-12-27T23:11:02.299Z,7.97
2018-12-27T23:13:32.043Z,8.03
2018-12-27T23:16:01.741Z,8.47
2018-12-27T23:18:31.483Z,8.47
2018-12-27T23:21:01.207Z,8.23
2018-12-27T23:23:30.950Z,8.17
2018-12-27T23:26:00.696Z,7.37
2018-12-27T23:28:30.421Z,7.33
2018-12-27T23:31:00.130Z,7.83
2018-12-27T23:33:29.852Z,7.60
2018-12-27T23:35:59.566Z,8.10
2018-12-27T23:38:29.280Z,7.33
2018-12-27T23:40:58.984Z,7.40
2018-12-27T23:43:28.736Z,7.83
2018-12-27T23:45:58.426Z,7.80
2018-12-27T23:48:28.210Z,8.53
2018-12-27T23:50:57.908Z,7.93
2018-12-27T23:53:27.662Z,7.43
2018-12-27T23:55:57.352Z,6.83
2018-12-27T23:58:27.127Z,7.90
